sensor_id;sensor_type;location;lat;lon;timestamp;P1;durP1;ratioP1;P2;durP2;ratioP2
2698;SDS011;1359;51.798;12.174;2023-04-12T00:00:52;5.33;;;4.30;;
2698;SDS011;1359;51.798;12.174;2023-04-12T00:03:18;4.50;;;3.87;;
2698;SDS011;1359;51.798;12.174;2023-04-12T00:05:46;5.33;;;3.90;;
2698;SDS011;1359;51.798;12.174;2023-04-12T00:08:12;7.80;;;4.60;;
2698;SDS011;1359;51.798;12.174;2023-04-12T00:10:38;4.13;;;3.77;;
2698;SDS011;1359;51.798;12.174;2023-04-12T00:13:03;5.50;;;4.47;;
2698;SDS011;1359;51.798;12.174;2023-04-12T00:15:29;12.73;;;4.93;;
2698;SDS011;1359;51.798;12.174;2023-04-12T00:17:54;5.17;;;3.90;;
2698;SDS011;1359;51.798;12.174;2023-04-12T00:20:19;7.07;;;4.60;;
2698;SDS011;1359;51.798;12.174;2023-04-12T00:22:45;4.90;;;4.30;;
2698;SDS011;1359;51.798;12.174;2023-04-12T00:25:10;5.67;;;4.47;;
2698;SDS011;1359;51.798;12.174;2023-04-12T00:27:35;8.00;;;4.90;;
2698;SDS011;1359;51.798;12.174;2023-04-12T00:30:01;11.13;;;5.33;;
2698;SDS011;1359;51.798;12.174;2023-04-12T00:32:27;5.00;;;4.23;;
2698;SDS011;1359;51.798;12.174;2023-04-12T00:34:53;8.37;;;4.00;;
2698;SDS011;1359;51.798;12.174;2023-04-12T00:37:19;4.70;;;3.70;;
2698;SDS011;1359;51.798;12.174;2023-04-12T00:39:44;6.23;;;4.47;;
2698;SDS011;1359;51.798;12.174;2023-04-12T00:42:09;8.10;;;4.57;;
2698;SDS011;1359;51.798;12.174;2023-04-12T00:44:35;5.03;;;4.53;;
2698;SDS011;1359;51.798;12.174;2023-04-12T00:47:00;6.60;;;4.70;;
2698;SDS011;1359;51.798;12.174;2023-04-12T00:49:28;8.47;;;5.90;;
2698;SDS011;1359;51.798;12.174;2023-04-12T00:52:13;6.17;;;4.40;;
2698;SDS011;1359;51.798;12.174;2023-04-12T00:54:40;9.50;;;5.30;;
2698;SDS011;1359;51.798;12.174;2023-04-12T00:57:06;5.17;;;4.60;;
2698;SDS011;1359;51.798;12.174;2023-04-12T00:59:31;6.90;;;4.53;;
2698;SDS011;1359;51.798;12.174;2023-04-12T01:01:57;7.13;;;4.97;;
2698;SDS011;1359;51.798;12.174;2023-04-12T01:04:23;5.43;;;4.90;;
2698;SDS011;1359;51.798;12.174;2023-04-12T01:07:08;6.47;;;5.80;;
2698;SDS011;1359;51.798;12.174;2023-04-12T01:14:40;7.87;;;5.80;;
2698;SDS011;1359;51.798;12.174;2023-04-12T01:17:07;6.60;;;5.57;;
2698;SDS011;1359;51.798;12.174;2023-04-12T01:19:44;5.70;;;5.10;;
2698;SDS011;1359;51.798;12.174;2023-04-12T01:22:28;6.00;;;4.87;;
2698;SDS011;1359;51.798;12.174;2023-04-12T01:25:20;8.07;;;6.30;;
2698;SDS011;1359;51.798;12.174;2023-04-12T01:27:58;5.47;;;4.97;;
2698;SDS011;1359;51.798;12.174;2023-04-12T01:30:25;8.60;;;6.27;;
2698;SDS011;1359;51.798;12.174;2023-04-12T01:32:52;8.40;;;6.43;;
2698;SDS011;1359;51.798;12.174;2023-04-12T01:35:19;7.80;;;6.00;;
2698;SDS011;1359;51.798;12.174;2023-04-12T01:37:45;7.37;;;5.33;;
2698;SDS011;1359;51.798;12.174;2023-04-12T01:40:11;7.20;;;6.50;;
2698;SDS011;1359;51.798;12.174;2023-04-12T01:42:37;5.83;;;5.20;;
2698;SDS011;1359;51.798;12.174;2023-04-12T01:45:03;5.70;;;5.20;;
2698;SDS011;1359;51.798;12.174;2023-04-12T01:47:29;15.37;;;6.90;;
2698;SDS011;1359;51.798;12.174;2023-04-12T01:50:38;7.30;;;5.87;;
2698;SDS011;1359;51.798;12.174;2023-04-12T01:52:52;9.33;;;6.20;;
2698;SDS011;1359;51.798;12.174;2023-04-12T01:55:19;6.43;;;5.83;;
2698;SDS011;1359;51.798;12.174;2023-04-12T01:57:45;6.50;;;5.47;;
2698;SDS011;1359;51.798;12.174;2023-04-12T02:00:12;8.33;;;6.23;;
2698;SDS011;1359;51.798;12.174;2023-04-12T02:02:41;8.77;;;6.10;;
2698;SDS011;1359;51.798;12.174;2023-04-12T02:05:07;7.53;;;6.73;;
2698;SDS011;1359;51.798;12.174;2023-04-12T02:07:33;9.30;;;6.23;;
2698;SDS011;1359;51.798;12.174;2023-04-12T02:09:59;7.13;;;6.30;;
2698;SDS011;1359;51.798;12.174;2023-04-12T02:12:24;11.67;;;7.20;;
2698;SDS011;1359;51.798;12.174;2023-04-12T02:14:49;12.60;;;6.93;;
2698;SDS011;1359;51.798;12.174;2023-04-12T02:17:16;8.57;;;6.40;;
2698;SDS011;1359;51.798;12.174;2023-04-12T02:19:41;9.90;;;7.87;;
2698;SDS011;1359;51.798;12.174;2023-04-12T02:22:08;8.20;;;7.00;;
2698;SDS011;1359;51.798;12.174;2023-04-12T02:24:33;8.90;;;6.23;;
2698;SDS011;1359;51.798;12.174;2023-04-12T02:26:59;9.73;;;6.70;;
2698;SDS011;1359;51.798;12.174;2023-04-12T02:29:26;9.30;;;6.90;;
2698;SDS011;1359;51.798;12.174;2023-04-12T02:31:51;8.40;;;7.00;;
2698;SDS011;1359;51.798;12.174;2023-04-12T02:34:18;8.43;;;7.07;;
2698;SDS011;1359;51.798;12.174;2023-04-12T02:36:48;8.13;;;6.57;;
2698;SDS011;1359;51.798;12.174;2023-04-12T02:39:15;8.17;;;6.97;;
2698;SDS011;1359;51.798;12.174;2023-04-12T02:41:47;11.00;;;9.00;;
2698;SDS011;1359;51.798;12.174;2023-04-12T02:44:14;30.70;;;18.70;;
2698;SDS011;1359;51.798;12.174;2023-04-12T02:46:44;23.83;;;15.63;;
2698;SDS011;1359;51.798;12.174;2023-04-12T02:49:13;10.90;;;8.10;;
2698;SDS011;1359;51.798;12.174;2023-04-12T02:51:40;8.93;;;6.90;;
2698;SDS011;1359;51.798;12.174;2023-04-12T02:54:06;11.90;;;8.80;;
2698;SDS011;1359;51.798;12.174;2023-04-12T02:56:49;11.77;;;9.67;;
2698;SDS011;1359;51.798;12.174;2023-04-12T02:59:31;10.33;;;6.13;;
2698;SDS011;1359;51.798;12.174;2023-04-12T03:02:08;7.00;;;6.10;;
2698;SDS011;1359;51.798;12.174;2023-04-12T03:04:34;13.63;;;6.77;;
2698;SDS011;1359;51.798;12.174;2023-04-12T03:07:01;9.90;;;6.40;;
2698;SDS011;1359;51.798;12.174;2023-04-12T03:09:33;13.33;;;8.10;;
2698;SDS011;1359;51.798;12.174;2023-04-12T03:12:02;10.93;;;7.27;;
2698;SDS011;1359;51.798;12.174;2023-04-12T03:14:32;9.80;;;6.30;;
2698;SDS011;1359;51.798;12.174;2023-04-12T03:16:57;6.40;;;5.50;;
2698;SDS011;1359;51.798;12.174;2023-04-12T03:19:23;8.37;;;5.90;;
2698;SDS011;1359;51.798;12.174;2023-04-12T03:21:52;10.00;;;5.67;;
2698;SDS011;1359;51.798;12.174;2023-04-12T03:24:18;7.23;;;6.20;;
2698;SDS011;1359;51.798;12.174;2023-04-12T03:26:43;8.50;;;6.10;;
2698;SDS011;1359;51.798;12.174;2023-04-12T03:29:15;8.80;;;5.80;;
2698;SDS011;1359;51.798;12.174;2023-04-12T03:31:41;8.67;;;6.30;;
2698;SDS011;1359;51.798;12.174;2023-04-12T03:34:07;6.27;;;5.67;;
2698;SDS011;1359;51.798;12.174;2023-04-12T03:36:35;6.03;;;5.43;;
2698;SDS011;1359;51.798;12.174;2023-04-12T03:39:09;6.07;;;5.47;;
2698;SDS011;1359;51.798;12.174;2023-04-12T03:41:36;7.87;;;5.77;;
2698;SDS011;1359;51.798;12.174;2023-04-12T03:44:03;5.17;;;4.60;;
2698;SDS011;1359;51.798;12.174;2023-04-12T03:46:30;9.23;;;5.30;;
2698;SDS011;1359;51.798;12.174;2023-04-12T03:48:58;10.03;;;7.20;;
2698;SDS011;1359;51.798;12.174;2023-04-12T03:51:25;9.73;;;6.23;;
2698;SDS011;1359;51.798;12.174;2023-04-12T03:53:53;8.20;;;6.10;;
2698;SDS011;1359;51.798;12.174;2023-04-12T03:56:19;13.20;;;6.83;;
2698;SDS011;1359;51.798;12.174;2023-04-12T03:58:51;12.97;;;8.40;;
2698;SDS011;1359;51.798;12.174;2023-04-12T04:01:18;40.47;;;20.27;;
2698;SDS011;1359;51.798;12.174;2023-04-12T04:03:45;50.80;;;25.30;;
2698;SDS011;1359;51.798;12.174;2023-04-12T04:06:17;53.90;;;29.67;;
2698;SDS011;1359;51.798;12.174;2023-04-12T04:08:43;47.87;;;29.50;;
2698;SDS011;1359;51.798;12.174;2023-04-12T04:11:10;28.47;;;19.37;;
2698;SDS011;1359;51.798;12.174;2023-04-12T04:13:38;8.90;;;7.70;;
2698;SDS011;1359;51.798;12.174;2023-04-12T04:16:06;11.80;;;7.20;;
2698;SDS011;1359;51.798;12.174;2023-04-12T04:18:34;8.43;;;5.80;;
2698;SDS011;1359;51.798;12.174;2023-04-12T04:21:00;9.43;;;5.23;;
2698;SDS011;1359;51.798;12.174;2023-04-12T04:23:27;6.63;;;5.97;;
2698;SDS011;1359;51.798;12.174;2023-04-12T04:26:04;8.37;;;6.87;;
2698;SDS011;1359;51.798;12.174;2023-04-12T04:28:29;9.87;;;6.20;;
2698;SDS011;1359;51.798;12.174;2023-04-12T04:30:55;9.80;;;6.03;;
2698;SDS011;1359;51.798;12.174;2023-04-12T04:33:21;5.60;;;5.10;;
2698;SDS011;1359;51.798;12.174;2023-04-12T04:35:47;8.23;;;5.77;;
2698;SDS011;1359;51.798;12.174;2023-04-12T04:38:25;9.03;;;5.63;;
2698;SDS011;1359;51.798;12.174;2023-04-12T04:40:52;6.20;;;5.50;;
2698;SDS011;1359;51.798;12.174;2023-04-12T04:43:20;8.90;;;4.93;;
2698;SDS011;1359;51.798;12.174;2023-04-12T04:45:46;9.53;;;5.07;;
2698;SDS011;1359;51.798;12.174;2023-04-12T04:48:16;6.57;;;4.93;;
2698;SDS011;1359;51.798;12.174;2023-04-12T04:50:42;8.17;;;5.30;;
2698;SDS011;1359;51.798;12.174;2023-04-12T04:53:08;8.63;;;5.20;;
2698;SDS011;1359;51.798;12.174;2023-04-12T04:55:34;14.43;;;5.30;;
2698;SDS011;1359;51.798;12.174;2023-04-12T04:57:59;7.97;;;5.30;;
2698;SDS011;1359;51.798;12.174;2023-04-12T05:00:25;4.40;;;4.00;;
2698;SDS011;1359;51.798;12.174;2023-04-12T05:02:54;6.80;;;5.10;;
2698;SDS011;1359;51.798;12.174;2023-04-12T05:05:23;7.23;;;4.53;;
2698;SDS011;1359;51.798;12.174;2023-04-12T05:07:55;9.00;;;4.90;;
2698;SDS011;1359;51.798;12.174;2023-04-12T05:10:21;5.57;;;3.90;;
2698;SDS011;1359;51.798;12.174;2023-04-12T05:12:47;6.53;;;5.57;;
2698;SDS011;1359;51.798;12.174;2023-04-12T05:15:13;5.23;;;4.73;;
2698;SDS011;1359;51.798;12.174;2023-04-12T05:17:39;7.40;;;5.23;;
2698;SDS011;1359;51.798;12.174;2023-04-12T05:20:05;6.67;;;4.53;;
2698;SDS011;1359;51.798;12.174;2023-04-12T05:22:32;5.87;;;5.30;;
2698;SDS011;1359;51.798;12.174;2023-04-12T05:24:58;7.03;;;3.63;;
2698;SDS011;1359;51.798;12.174;2023-04-12T05:27:27;9.33;;;4.73;;
2698;SDS011;1359;51.798;12.174;2023-04-12T05:29:53;6.17;;;4.80;;
2698;SDS011;1359;51.798;12.174;2023-04-12T05:32:21;7.57;;;5.60;;
2698;SDS011;1359;51.798;12.174;2023-04-12T05:34:47;6.63;;;5.97;;
2698;SDS011;1359;51.798;12.174;2023-04-12T05:37:12;11.10;;;4.93;;
2698;SDS011;1359;51.798;12.174;2023-04-12T05:39:38;6.97;;;4.50;;
2698;SDS011;1359;51.798;12.174;2023-04-12T05:42:05;5.43;;;4.90;;
2698;SDS011;1359;51.798;12.174;2023-04-12T05:44:30;4.50;;;4.10;;
2698;SDS011;1359;51.798;12.174;2023-04-12T05:46:56;5.43;;;3.90;;
2698;SDS011;1359;51.798;12.174;2023-04-12T05:49:22;4.43;;;3.97;;
2698;SDS011;1359;51.798;12.174;2023-04-12T05:51:47;3.93;;;3.50;;
2698;SDS011;1359;51.798;12.174;2023-04-12T05:54:19;4.47;;;3.80;;
2698;SDS011;1359;51.798;12.174;2023-04-12T05:56:45;4.30;;;3.90;;
2698;SDS011;1359;51.798;12.174;2023-04-12T05:59:11;19.50;;;5.10;;
2698;SDS011;1359;51.798;12.174;2023-04-12T06:01:37;4.77;;;4.17;;
2698;SDS011;1359;51.798;12.174;2023-04-12T06:04:07;7.30;;;3.80;;
2698;SDS011;1359;51.798;12.174;2023-04-12T06:06:32;5.30;;;4.13;;
2698;SDS011;1359;51.798;12.174;2023-04-12T06:08:58;9.03;;;4.40;;
2698;SDS011;1359;51.798;12.174;2023-04-12T06:11:27;4.40;;;3.60;;
2698;SDS011;1359;51.798;12.174;2023-04-12T06:13:53;9.10;;;3.70;;
2698;SDS011;1359;51.798;12.174;2023-04-12T06:16:18;7.43;;;4.90;;
2698;SDS011;1359;51.798;12.174;2023-04-12T06:18:44;8.23;;;4.50;;
2698;SDS011;1359;51.798;12.174;2023-04-12T06:21:09;5.17;;;3.27;;
2698;SDS011;1359;51.798;12.174;2023-04-12T06:23:35;6.40;;;3.40;;
2698;SDS011;1359;51.798;12.174;2023-04-12T06:26:00;4.77;;;3.30;;
2698;SDS011;1359;51.798;12.174;2023-04-12T06:28:26;6.43;;;3.50;;
2698;SDS011;1359;51.798;12.174;2023-04-12T06:30:52;15.93;;;8.57;;
2698;SDS011;1359;51.798;12.174;2023-04-12T06:33:18;3.87;;;3.40;;
2698;SDS011;1359;51.798;12.174;2023-04-12T06:35:46;8.63;;;6.83;;
2698;SDS011;1359;51.798;12.174;2023-04-12T06:38:11;8.40;;;4.27;;
2698;SDS011;1359;51.798;12.174;2023-04-12T06:40:37;4.50;;;3.27;;
2698;SDS011;1359;51.798;12.174;2023-04-12T06:43:02;7.07;;;3.67;;
2698;SDS011;1359;51.798;12.174;2023-04-12T06:45:27;5.57;;;4.97;;
2698;SDS011;1359;51.798;12.174;2023-04-12T06:47:53;6.97;;;4.30;;
2698;SDS011;1359;51.798;12.174;2023-04-12T06:50:21;6.07;;;4.07;;
2698;SDS011;1359;51.798;12.174;2023-04-12T06:52:46;7.77;;;4.50;;
2698;SDS011;1359;51.798;12.174;2023-04-12T06:55:13;5.03;;;3.40;;
2698;SDS011;1359;51.798;12.174;2023-04-12T06:57:38;5.80;;;3.40;;
2698;SDS011;1359;51.798;12.174;2023-04-12T07:00:05;5.20;;;4.70;;
2698;SDS011;1359;51.798;12.174;2023-04-12T07:02:31;5.23;;;3.80;;
2698;SDS011;1359;51.798;12.174;2023-04-12T07:04:56;8.00;;;3.77;;
2698;SDS011;1359;51.798;12.174;2023-04-12T07:07:21;6.30;;;3.73;;
2698;SDS011;1359;51.798;12.174;2023-04-12T07:09:47;3.80;;;3.50;;
2698;SDS011;1359;51.798;12.174;2023-04-12T07:12:12;8.70;;;3.40;;
2698;SDS011;1359;51.798;12.174;2023-04-12T07:14:38;5.40;;;4.47;;
2698;SDS011;1359;51.798;12.174;2023-04-12T07:17:03;5.30;;;3.87;;
2698;SDS011;1359;51.798;12.174;2023-04-12T07:19:29;7.00;;;4.50;;
2698;SDS011;1359;51.798;12.174;2023-04-12T07:21:55;3.57;;;2.63;;
2698;SDS011;1359;51.798;12.174;2023-04-12T07:24:20;6.93;;;3.57;;
2698;SDS011;1359;51.798;12.174;2023-04-12T07:26:46;4.17;;;3.77;;
2698;SDS011;1359;51.798;12.174;2023-04-12T07:29:11;9.43;;;3.50;;
2698;SDS011;1359;51.798;12.174;2023-04-12T07:31:36;4.17;;;3.77;;
2698;SDS011;1359;51.798;12.174;2023-04-12T07:34:02;3.63;;;2.60;;
2698;SDS011;1359;51.798;12.174;2023-04-12T07:36:27;5.00;;;3.50;;
2698;SDS011;1359;51.798;12.174;2023-04-12T07:38:52;10.47;;;5.53;;
2698;SDS011;1359;51.798;12.174;2023-04-12T07:41:20;5.87;;;4.60;;
2698;SDS011;1359;51.798;12.174;2023-04-12T07:43:45;4.07;;;3.50;;
2698;SDS011;1359;51.798;12.174;2023-04-12T07:46:11;6.43;;;3.80;;
2698;SDS011;1359;51.798;12.174;2023-04-12T07:48:36;8.17;;;3.90;;
2698;SDS011;1359;51.798;12.174;2023-04-12T07:51:01;6.30;;;5.20;;
2698;SDS011;1359;51.798;12.174;2023-04-12T07:53:27;9.13;;;5.30;;
2698;SDS011;1359;51.798;12.174;2023-04-12T07:55:53;10.60;;;4.47;;
2698;SDS011;1359;51.798;12.174;2023-04-12T07:58:19;6.43;;;4.50;;
2698;SDS011;1359;51.798;12.174;2023-04-12T08:00:45;7.50;;;4.00;;
2698;SDS011;1359;51.798;12.174;2023-04-12T08:03:11;10.00;;;5.33;;
2698;SDS011;1359;51.798;12.174;2023-04-12T08:05:36;3.17;;;2.70;;
2698;SDS011;1359;51.798;12.174;2023-04-12T08:08:02;3.67;;;3.20;;
2698;SDS011;1359;51.798;12.174;2023-04-12T08:10:28;4.10;;;3.10;;
2698;SDS011;1359;51.798;12.174;2023-04-12T08:12:54;5.30;;;3.60;;
2698;SDS011;1359;51.798;12.174;2023-04-12T08:15:19;5.00;;;3.83;;
2698;SDS011;1359;51.798;12.174;2023-04-12T08:17:45;5.87;;;3.30;;
2698;SDS011;1359;51.798;12.174;2023-04-12T08:20:10;6.00;;;3.00;;
2698;SDS011;1359;51.798;12.174;2023-04-12T08:22:36;6.30;;;3.07;;
2698;SDS011;1359;51.798;12.174;2023-04-12T08:25:01;7.10;;;3.33;;
2698;SDS011;1359;51.798;12.174;2023-04-12T08:27:28;3.70;;;2.60;;
2698;SDS011;1359;51.798;12.174;2023-04-12T08:29:53;3.80;;;3.00;;
2698;SDS011;1359;51.798;12.174;2023-04-12T08:32:18;7.90;;;3.67;;
2698;SDS011;1359;51.798;12.174;2023-04-12T08:34:44;15.63;;;3.47;;
2698;SDS011;1359;51.798;12.174;2023-04-12T08:37:09;4.03;;;2.40;;
2698;SDS011;1359;51.798;12.174;2023-04-12T08:39:34;7.33;;;4.03;;
2698;SDS011;1359;51.798;12.174;2023-04-12T08:42:01;4.03;;;3.57;;
2698;SDS011;1359;51.798;12.174;2023-04-12T08:44:38;5.23;;;3.33;;
2698;SDS011;1359;51.798;12.174;2023-04-12T08:47:04;7.70;;;3.90;;
2698;SDS011;1359;51.798;12.174;2023-04-12T08:49:30;4.33;;;3.27;;
2698;SDS011;1359;51.798;12.174;2023-04-12T08:51:58;11.20;;;4.10;;
2698;SDS011;1359;51.798;12.174;2023-04-12T08:54:24;5.37;;;2.83;;
2698;SDS011;1359;51.798;12.174;2023-04-12T08:56:51;4.60;;;4.00;;
2698;SDS011;1359;51.798;12.174;2023-04-12T08:59:17;4.33;;;3.07;;
2698;SDS011;1359;51.798;12.174;2023-04-12T09:01:43;8.83;;;3.17;;
2698;SDS011;1359;51.798;12.174;2023-04-12T09:04:08;7.37;;;3.30;;
2698;SDS011;1359;51.798;12.174;2023-04-12T09:06:33;10.80;;;3.80;;
2698;SDS011;1359;51.798;12.174;2023-04-12T09:08:59;7.60;;;3.67;;
2698;SDS011;1359;51.798;12.174;2023-04-12T09:11:26;6.70;;;3.33;;
2698;SDS011;1359;51.798;12.174;2023-04-12T09:13:55;7.83;;;2.90;;
2698;SDS011;1359;51.798;12.174;2023-04-12T09:16:36;7.80;;;3.30;;
2698;SDS011;1359;51.798;12.174;2023-04-12T09:19:02;5.33;;;3.10;;
2698;SDS011;1359;51.798;12.174;2023-04-12T09:21:27;6.20;;;2.80;;
2698;SDS011;1359;51.798;12.174;2023-04-12T09:24:06;6.37;;;3.30;;
2698;SDS011;1359;51.798;12.174;2023-04-12T09:26:35;3.90;;;3.00;;
2698;SDS011;1359;51.798;12.174;2023-04-12T09:29:01;5.80;;;3.10;;
2698;SDS011;1359;51.798;12.174;2023-04-12T09:31:27;9.80;;;3.53;;
2698;SDS011;1359;51.798;12.174;2023-04-12T09:33:52;3.93;;;2.77;;
2698;SDS011;1359;51.798;12.174;2023-04-12T09:36:24;8.73;;;3.83;;
2698;SDS011;1359;51.798;12.174;2023-04-12T09:39:01;4.57;;;3.40;;
2698;SDS011;1359;51.798;12.174;2023-04-12T09:41:27;6.70;;;3.10;;
2698;SDS011;1359;51.798;12.174;2023-04-12T09:43:59;3.67;;;2.50;;
2698;SDS011;1359;51.798;12.174;2023-04-12T09:46:24;6.87;;;3.47;;
2698;SDS011;1359;51.798;12.174;2023-04-12T09:48:51;3.63;;;2.87;;
2698;SDS011;1359;51.798;12.174;2023-04-12T09:51:29;7.20;;;3.50;;
2698;SDS011;1359;51.798;12.174;2023-04-12T09:53:58;5.63;;;3.70;;
2698;SDS011;1359;51.798;12.174;2023-04-12T09:56:27;5.73;;;3.33;;
2698;SDS011;1359;51.798;12.174;2023-04-12T09:58:52;7.67;;;3.37;;
2698;SDS011;1359;51.798;12.174;2023-04-12T10:01:19;13.20;;;3.70;;
2698;SDS011;1359;51.798;12.174;2023-04-12T10:03:45;8.87;;;3.67;;
2698;SDS011;1359;51.798;12.174;2023-04-12T10:06:11;8.23;;;3.33;;
2698;SDS011;1359;51.798;12.174;2023-04-12T10:08:36;5.33;;;2.80;;
2698;SDS011;1359;51.798;12.174;2023-04-12T10:11:02;6.03;;;3.83;;
2698;SDS011;1359;51.798;12.174;2023-04-12T10:13:30;6.27;;;3.73;;
2698;SDS011;1359;51.798;12.174;2023-04-12T10:15:56;7.23;;;3.07;;
2698;SDS011;1359;51.798;12.174;2023-04-12T10:18:21;13.93;;;3.40;;
2698;SDS011;1359;51.798;12.174;2023-04-12T10:20:47;4.57;;;2.87;;
2698;SDS011;1359;51.798;12.174;2023-04-12T10:23:17;3.90;;;2.93;;
2698;SDS011;1359;51.798;12.174;2023-04-12T10:25:43;4.87;;;2.80;;
2698;SDS011;1359;51.798;12.174;2023-04-12T10:28:13;8.47;;;2.90;;
2698;SDS011;1359;51.798;12.174;2023-04-12T10:30:39;6.00;;;3.73;;
2698;SDS011;1359;51.798;12.174;2023-04-12T10:35:48;3.73;;;2.60;;
2698;SDS011;1359;51.798;12.174;2023-04-12T10:38:14;5.40;;;3.30;;
2698;SDS011;1359;51.798;12.174;2023-04-12T10:41:05;7.67;;;3.23;;
2698;SDS011;1359;51.798;12.174;2023-04-12T10:43:25;9.87;;;3.50;;
2698;SDS011;1359;51.798;12.174;2023-04-12T10:45:51;4.40;;;2.33;;
2698;SDS011;1359;51.798;12.174;2023-04-12T10:51:14;4.00;;;2.80;;
2698;SDS011;1359;51.798;12.174;2023-04-12T10:53:39;7.37;;;2.87;;
2698;SDS011;1359;51.798;12.174;2023-04-12T11:01:19;4.57;;;2.60;;
2698;SDS011;1359;51.798;12.174;2023-04-12T11:06:42;2.70;;;2.50;;
2698;SDS011;1359;51.798;12.174;2023-04-12T11:09:27;9.03;;;4.00;;
2698;SDS011;1359;51.798;12.174;2023-04-12T11:11:56;5.97;;;2.50;;
2698;SDS011;1359;51.798;12.174;2023-04-12T11:14:28;4.33;;;3.10;;
2698;SDS011;1359;51.798;12.174;2023-04-12T11:19:32;4.47;;;2.57;;
2698;SDS011;1359;51.798;12.174;2023-04-12T11:22:01;6.43;;;3.30;;
2698;SDS011;1359;51.798;12.174;2023-04-12T11:24:27;8.83;;;2.50;;
2698;SDS011;1359;51.798;12.174;2023-04-12T11:26:52;5.90;;;2.63;;
2698;SDS011;1359;51.798;12.174;2023-04-12T11:29:22;4.73;;;2.50;;
2698;SDS011;1359;51.798;12.174;2023-04-12T11:31:47;3.70;;;2.83;;
2698;SDS011;1359;51.798;12.174;2023-04-12T11:34:14;3.73;;;2.60;;
2698;SDS011;1359;51.798;12.174;2023-04-12T11:36:40;7.90;;;3.00;;
2698;SDS011;1359;51.798;12.174;2023-04-12T11:39:05;5.50;;;2.83;;
2698;SDS011;1359;51.798;12.174;2023-04-12T11:41:31;5.20;;;3.20;;
2698;SDS011;1359;51.798;12.174;2023-04-12T11:43:56;5.20;;;3.10;;
2698;SDS011;1359;51.798;12.174;2023-04-12T11:46:21;4.47;;;2.70;;
2698;SDS011;1359;51.798;12.174;2023-04-12T11:48:47;5.00;;;2.70;;
2698;SDS011;1359;51.798;12.174;2023-04-12T11:51:19;2.87;;;2.10;;
2698;SDS011;1359;51.798;12.174;2023-04-12T11:53:44;2.33;;;2.07;;
2698;SDS011;1359;51.798;12.174;2023-04-12T11:56:09;3.50;;;2.50;;
2698;SDS011;1359;51.798;12.174;2023-04-12T11:58:35;7.07;;;2.40;;
2698;SDS011;1359;51.798;12.174;2023-04-12T12:01:00;3.50;;;2.53;;
2698;SDS011;1359;51.798;12.174;2023-04-12T12:03:26;13.77;;;3.40;;
2698;SDS011;1359;51.798;12.174;2023-04-12T12:05:52;3.50;;;2.60;;
2698;SDS011;1359;51.798;12.174;2023-04-12T12:08:17;4.00;;;3.10;;
2698;SDS011;1359;51.798;12.174;2023-04-12T12:10:43;4.33;;;2.50;;
2698;SDS011;1359;51.798;12.174;2023-04-12T12:13:09;5.30;;;2.43;;
2698;SDS011;1359;51.798;12.174;2023-04-12T12:15:35;4.20;;;2.53;;
2698;SDS011;1359;51.798;12.174;2023-04-12T12:18:01;8.30;;;3.03;;
2698;SDS011;1359;51.798;12.174;2023-04-12T12:20:26;7.37;;;3.03;;
2698;SDS011;1359;51.798;12.174;2023-04-12T12:22:52;3.60;;;3.13;;
2698;SDS011;1359;51.798;12.174;2023-04-12T12:25:18;6.73;;;3.13;;
2698;SDS011;1359;51.798;12.174;2023-04-12T12:27:43;5.40;;;2.93;;
2698;SDS011;1359;51.798;12.174;2023-04-12T12:30:15;8.30;;;2.90;;
2698;SDS011;1359;51.798;12.174;2023-04-12T12:32:41;7.30;;;2.90;;
2698;SDS011;1359;51.798;12.174;2023-04-12T12:35:07;3.07;;;2.40;;
2698;SDS011;1359;51.798;12.174;2023-04-12T12:37:33;5.13;;;2.87;;
2698;SDS011;1359;51.798;12.174;2023-04-12T12:40:02;5.90;;;2.70;;
2698;SDS011;1359;51.798;12.174;2023-04-12T12:42:34;2.93;;;2.63;;
2698;SDS011;1359;51.798;12.174;2023-04-12T12:45:00;3.17;;;2.50;;
2698;SDS011;1359;51.798;12.174;2023-04-12T12:47:25;4.00;;;3.30;;
2698;SDS011;1359;51.798;12.174;2023-04-12T12:49:50;5.07;;;3.10;;
2698;SDS011;1359;51.798;12.174;2023-04-12T12:52:16;7.80;;;4.10;;
2698;SDS011;1359;51.798;12.174;2023-04-12T12:54:41;3.20;;;2.90;;
2698;SDS011;1359;51.798;12.174;2023-04-12T12:57:06;4.13;;;3.50;;
2698;SDS011;1359;51.798;12.174;2023-04-12T12:59:32;6.23;;;2.83;;
2698;SDS011;1359;51.798;12.174;2023-04-12T13:01:57;5.23;;;3.30;;
2698;SDS011;1359;51.798;12.174;2023-04-12T13:04:22;3.53;;;3.00;;
2698;SDS011;1359;51.798;12.174;2023-04-12T13:06:48;5.37;;;3.40;;
2698;SDS011;1359;51.798;12.174;2023-04-12T13:09:13;5.83;;;3.90;;
2698;SDS011;1359;51.798;12.174;2023-04-12T13:11:38;4.70;;;3.30;;
2698;SDS011;1359;51.798;12.174;2023-04-12T13:14:03;8.50;;;4.50;;
2698;SDS011;1359;51.798;12.174;2023-04-12T13:16:29;10.40;;;3.47;;
2698;SDS011;1359;51.798;12.174;2023-04-12T13:18:54;7.77;;;3.47;;
2698;SDS011;1359;51.798;12.174;2023-04-12T13:21:20;4.53;;;2.60;;
2698;SDS011;1359;51.798;12.174;2023-04-12T13:23:45;6.60;;;3.90;;
2698;SDS011;1359;51.798;12.174;2023-04-12T13:26:10;3.80;;;3.47;;
2698;SDS011;1359;51.798;12.174;2023-04-12T13:28:36;7.87;;;3.70;;
2698;SDS011;1359;51.798;12.174;2023-04-12T13:31:01;4.50;;;3.60;;
2698;SDS011;1359;51.798;12.174;2023-04-12T13:33:27;4.37;;;3.20;;
2698;SDS011;1359;51.798;12.174;2023-04-12T13:35:52;5.73;;;3.10;;
2698;SDS011;1359;51.798;12.174;2023-04-12T13:38:18;4.17;;;3.60;;
2698;SDS011;1359;51.798;12.174;2023-04-12T13:40:43;3.60;;;3.30;;
2698;SDS011;1359;51.798;12.174;2023-04-12T13:43:08;5.03;;;3.90;;
2698;SDS011;1359;51.798;12.174;2023-04-12T13:45:34;9.80;;;3.97;;
2698;SDS011;1359;51.798;12.174;2023-04-12T13:48:00;8.50;;;4.70;;
2698;SDS011;1359;51.798;12.174;2023-04-12T13:50:25;4.00;;;3.57;;
2698;SDS011;1359;51.798;12.174;2023-04-12T13:52:51;3.50;;;3.20;;
2698;SDS011;1359;51.798;12.174;2023-04-12T13:55:16;6.00;;;4.00;;
2698;SDS011;1359;51.798;12.174;2023-04-12T13:57:41;3.57;;;3.27;;
2698;SDS011;1359;51.798;12.174;2023-04-12T14:00:07;4.40;;;4.00;;
2698;SDS011;1359;51.798;12.174;2023-04-12T14:02:33;6.27;;;4.97;;
2698;SDS011;1359;51.798;12.174;2023-04-12T14:04:58;3.90;;;3.53;;
2698;SDS011;1359;51.798;12.174;2023-04-12T14:07:24;5.87;;;4.23;;
2698;SDS011;1359;51.798;12.174;2023-04-12T14:09:50;4.43;;;3.60;;
2698;SDS011;1359;51.798;12.174;2023-04-12T14:12:15;5.10;;;4.33;;
2698;SDS011;1359;51.798;12.174;2023-04-12T14:14:40;4.00;;;3.60;;
2698;SDS011;1359;51.798;12.174;2023-04-12T14:17:06;4.37;;;3.57;;
2698;SDS011;1359;51.798;12.174;2023-04-12T14:19:31;4.63;;;4.20;;
2698;SDS011;1359;51.798;12.174;2023-04-12T14:21:57;4.80;;;4.17;;
2698;SDS011;1359;51.798;12.174;2023-04-12T14:24:22;9.70;;;7.90;;
2698;SDS011;1359;51.798;12.174;2023-04-12T14:26:47;12.50;;;9.80;;
2698;SDS011;1359;51.798;12.174;2023-04-12T14:29:15;6.83;;;5.90;;
2698;SDS011;1359;51.798;12.174;2023-04-12T14:31:41;4.97;;;4.57;;
2698;SDS011;1359;51.798;12.174;2023-04-12T14:34:06;4.00;;;3.67;;
2698;SDS011;1359;51.798;12.174;2023-04-12T14:36:35;6.43;;;3.63;;
2698;SDS011;1359;51.798;12.174;2023-04-12T14:39:00;5.80;;;4.77;;
2698;SDS011;1359;51.798;12.174;2023-04-12T14:41:28;4.10;;;3.77;;
2698;SDS011;1359;51.798;12.174;2023-04-12T14:43:53;5.17;;;4.30;;
2698;SDS011;1359;51.798;12.174;2023-04-12T14:46:18;8.07;;;4.97;;
2698;SDS011;1359;51.798;12.174;2023-04-12T14:48:44;6.63;;;5.00;;
2698;SDS011;1359;51.798;12.174;2023-04-12T14:51:09;4.80;;;3.63;;
2698;SDS011;1359;51.798;12.174;2023-04-12T14:53:34;3.67;;;3.37;;
2698;SDS011;1359;51.798;12.174;2023-04-12T14:56:00;4.00;;;3.70;;
2698;SDS011;1359;51.798;12.174;2023-04-12T14:58:29;5.30;;;4.00;;
2698;SDS011;1359;51.798;12.174;2023-04-12T15:00:55;8.33;;;4.13;;
2698;SDS011;1359;51.798;12.174;2023-04-12T15:03:20;7.00;;;4.63;;
2698;SDS011;1359;51.798;12.174;2023-04-12T15:05:46;4.37;;;3.97;;
2698;SDS011;1359;51.798;12.174;2023-04-12T15:08:12;5.53;;;5.03;;
2698;SDS011;1359;51.798;12.174;2023-04-12T15:10:37;7.23;;;5.00;;
2698;SDS011;1359;51.798;12.174;2023-04-12T15:13:03;6.50;;;5.10;;
2698;SDS011;1359;51.798;12.174;2023-04-12T15:15:28;6.33;;;4.80;;
2698;SDS011;1359;51.798;12.174;2023-04-12T15:17:53;5.03;;;3.43;;
2698;SDS011;1359;51.798;12.174;2023-04-12T15:20:19;5.90;;;4.10;;